createdAt,value
2022-09-03T00:01:22.759Z,3.22
2022-09-03T00:03:56.102Z,4.15
2022-09-03T00:06:28.177Z,3.67
2022-09-03T00:09:06.065Z,3.65
2022-09-03T00:12:09.611Z,3.80
2022-09-03T00:14:47.458Z,3.92
2022-09-03T00:17:18.266Z,3.40
2022-09-03T00:19:57.743Z,3.50
2022-09-03T00:22:31.985Z,3.30
2022-09-03T00:25:04.296Z,3.63
2022-09-03T00:27:37.089Z,3.50
2022-09-03T00:30:09.727Z,3.50
2022-09-03T00:33:05.712Z,3.45
2022-09-03T00:35:41.123Z,4.05
2022-09-03T00:38:09.474Z,3.30
2022-09-03T00:41:08.794Z,3.30
2022-09-03T00:44:00.587Z,3.17
2022-09-03T00:46:35.247Z,3.72
2022-09-03T00:49:20.155Z,3.60
2022-09-03T00:52:03.119Z,3.30
2022-09-03T00:54:54.163Z,3.45
2022-09-03T00:57:44.335Z,3.50
2022-09-03T01:00:20.667Z,3.88
2022-09-03T01:03:09.678Z,3.90
2022-09-03T01:05:40.182Z,3.45
2022-09-03T01:08:35.895Z,3.70
2022-09-03T01:11:23.190Z,3.70
2022-09-03T01:14:03.195Z,3.75
2022-09-03T01:16:44.676Z,3.60
2022-09-03T01:19:26.568Z,3.58
2022-09-03T01:22:41.622Z,3.65
2022-09-03T01:25:17.699Z,3.72
2022-09-03T01:28:06.652Z,3.60
2022-09-03T01:30:40.006Z,3.30
2022-09-03T01:33:17.484Z,3.70
2022-09-03T01:35:53.672Z,4.20
2022-09-03T01:41:23.674Z,3.63
2022-09-03T01:44:26.111Z,3.95
2022-09-03T01:47:23.552Z,3.65
2022-09-03T01:50:34.732Z,3.97
2022-09-03T01:53:39.097Z,3.63
2022-09-03T01:56:25.818Z,4.03
2022-09-03T02:01:43.748Z,4.10
2022-09-03T02:04:23.244Z,3.97
2022-09-03T02:06:52.383Z,4.00
2022-09-03T02:09:20.670Z,4.05
2022-09-03T02:11:59.561Z,3.90
2022-09-03T02:14:29.218Z,4.43
2022-09-03T02:17:00.442Z,4.20
2022-09-03T02:19:30.189Z,3.92
2022-09-03T02:21:58.408Z,4.10
2022-09-03T02:24:28.219Z,4.43
2022-09-03T02:26:57.036Z,5.40
2022-09-03T02:29:25.255Z,4.25
2022-09-03T02:31:54.551Z,4.68
2022-09-03T02:34:22.055Z,5.63
2022-09-03T02:36:49.496Z,5.15
2022-09-03T02:39:17.201Z,7.97
2022-09-03T02:41:44.932Z,7.78
2022-09-03T02:44:30.732Z,8.63
2022-09-03T02:46:59.516Z,8.67
2022-09-03T02:49:28.189Z,8.07
2022-09-03T02:52:06.472Z,7.88
2022-09-03T02:54:36.501Z,8.18
2022-09-03T02:57:04.271Z,7.20
2022-09-03T02:59:31.759Z,7.40
2022-09-03T03:02:01.060Z,7.50
2022-09-03T03:04:30.258Z,7.18
2022-09-03T03:06:58.275Z,6.70
2022-09-03T03:09:26.624Z,7.13
2022-09-03T03:11:55.421Z,6.70
2022-09-03T03:14:23.615Z,6.45
2022-09-03T03:16:51.719Z,6.63
2022-09-03T03:19:19.602Z,6.90
2022-09-03T03:21:47.500Z,6.25
2022-09-03T03:24:15.178Z,6.07
2022-09-03T03:26:43.531Z,5.18
2022-09-03T03:29:16.457Z,5.43
2022-09-03T03:31:44.364Z,6.07
2022-09-03T03:34:11.830Z,5.80
2022-09-03T03:36:40.014Z,6.50
2022-09-03T03:39:11.355Z,6.18
2022-09-03T03:41:38.928Z,5.40
2022-09-03T03:44:08.191Z,5.65
2022-09-03T03:46:42.479Z,4.82
2022-09-03T03:49:11.822Z,4.30
2022-09-03T03:51:40.714Z,5.07
2022-09-03T03:54:10.037Z,4.40
2022-09-03T03:56:39.600Z,4.47
2022-09-03T03:59:08.208Z,3.90
2022-09-03T04:01:36.828Z,4.20
2022-09-03T04:04:06.512Z,4.03
2022-09-03T04:06:35.372Z,4.18
2022-09-03T04:09:03.060Z,4.00
2022-09-03T04:11:31.011Z,4.20
2022-09-03T04:13:58.407Z,4.63
2022-09-03T04:16:27.703Z,5.47
2022-09-03T04:18:56.422Z,4.40
2022-09-03T04:21:28.443Z,4.20
2022-09-03T04:23:57.662Z,4.00
2022-09-03T04:26:33.036Z,4.80
2022-09-03T04:29:03.178Z,3.85
2022-09-03T04:31:33.021Z,4.05
2022-09-03T04:34:01.395Z,3.80
2022-09-03T04:36:31.009Z,4.30
2022-09-03T04:39:00.407Z,3.78
2022-09-03T04:41:30.802Z,4.13
2022-09-03T04:43:59.382Z,3.90
2022-09-03T04:46:33.987Z,4.28
2022-09-03T04:49:02.373Z,3.90
2022-09-03T04:51:31.453Z,4.18
2022-09-03T04:54:01.404Z,3.45
2022-09-03T04:56:31.334Z,4.07
2022-09-03T04:59:16.837Z,4.50
2022-09-03T05:01:44.375Z,4.18
2022-09-03T05:04:11.753Z,3.72
2022-09-03T05:06:39.756Z,4.30
2022-09-03T05:09:08.669Z,3.75
2022-09-03T05:11:37.563Z,3.60
2022-09-03T05:14:13.483Z,3.83
2022-09-03T05:16:41.463Z,3.78
2022-09-03T05:19:09.130Z,3.42
2022-09-03T05:21:37.523Z,3.58
2022-09-03T05:24:05.974Z,3.72
2022-09-03T05:26:38.459Z,3.88
2022-09-03T05:29:08.155Z,3.67
2022-09-03T05:31:39.823Z,3.67
2022-09-03T05:34:16.572Z,3.80
2022-09-03T05:36:47.029Z,3.67
2022-09-03T05:39:14.500Z,3.70
2022-09-03T05:41:42.981Z,3.90
2022-09-03T05:44:10.959Z,4.07
2022-09-03T05:46:39.280Z,4.82
2022-09-03T05:49:07.664Z,4.40
2022-09-03T05:51:37.584Z,3.95
2022-09-03T05:54:05.691Z,3.63
2022-09-03T05:56:35.532Z,4.38
2022-09-03T05:59:09.364Z,3.65
2022-09-03T06:01:40.028Z,4.65
2022-09-03T06:04:13.783Z,4.10
2022-09-03T06:06:44.798Z,3.70
2022-09-03T06:09:18.318Z,3.65
2022-09-03T06:11:47.699Z,3.67
2022-09-03T06:14:18.083Z,3.72
2022-09-03T06:16:52.872Z,3.72
2022-09-03T06:19:20.796Z,4.13
2022-09-03T06:21:48.328Z,4.28
2022-09-03T06:26:45.097Z,3.80
2022-09-03T06:29:13.116Z,4.85
2022-09-03T06:31:42.232Z,4.50
2022-09-03T06:34:09.794Z,3.92
2022-09-03T06:36:38.839Z,3.75
2022-09-03T06:39:06.346Z,3.75
2022-09-03T06:41:35.605Z,3.88
2022-09-03T06:44:11.491Z,3.90
2022-09-03T06:46:42.638Z,3.70
2022-09-03T06:49:11.380Z,4.25
2022-09-03T06:51:41.358Z,3.72
2022-09-03T06:54:11.185Z,4.05
2022-09-03T06:56:41.446Z,3.85
2022-09-03T06:59:35.403Z,3.67
2022-09-03T07:02:04.177Z,4.00
2022-09-03T07:04:34.948Z,3.90
2022-09-03T07:07:04.285Z,3.70
2022-09-03T07:09:36.154Z,3.67
2022-09-03T07:12:30.855Z,3.45
2022-09-03T07:14:59.443Z,3.17
2022-09-03T07:18:12.513Z,3.50
2022-09-03T07:23:52.924Z,3.65
2022-09-03T07:26:18.157Z,3.60
2022-09-03T07:28:47.439Z,4.43
2022-09-03T07:31:26.701Z,3.53
2022-09-03T07:33:59.154Z,4.15
2022-09-03T07:36:29.383Z,3.58
2022-09-03T07:41:55.138Z,4.20
2022-09-03T07:44:26.740Z,4.20
2022-09-03T07:46:57.418Z,5.15
2022-09-03T07:49:36.932Z,5.05
2022-09-03T07:52:18.264Z,4.78
2022-09-03T08:06:20.573Z,3.60
2022-09-03T08:08:49.538Z,4.22
2022-09-03T08:11:20.799Z,4.32
2022-09-03T08:13:57.706Z,3.67
2022-09-03T08:18:53.403Z,2.80
2022-09-03T08:21:22.403Z,2.83
2022-09-03T08:23:55.887Z,2.97
2022-09-03T08:26:24.252Z,3.13
2022-09-03T08:28:52.951Z,2.72
2022-09-03T08:31:23.163Z,2.38
2022-09-03T08:33:53.941Z,2.70
2022-09-03T08:36:25.449Z,2.55
2022-09-03T08:38:55.327Z,2.05
2022-09-03T08:41:41.079Z,2.20
2022-09-03T08:44:24.357Z,2.05
2022-09-03T08:47:13.682Z,2.70
2022-09-03T08:50:18.409Z,2.42
2022-09-03T08:53:02.967Z,2.22
2022-09-03T08:55:44.874Z,2.10
2022-09-03T08:58:16.956Z,2.22
2022-09-03T09:01:13.246Z,2.20
2022-09-03T09:04:15.869Z,2.08
2022-09-03T09:06:53.529Z,2.15
2022-09-03T09:09:42.753Z,1.98
2022-09-03T09:12:18.978Z,1.83
2022-09-03T09:15:00.585Z,2.03
2022-09-03T09:17:37.433Z,2.00
2022-09-03T09:20:35.890Z,1.80
2022-09-03T09:23:05.799Z,1.63
2022-09-03T09:25:44.378Z,2.22
2022-09-03T09:28:20.063Z,2.28
2022-09-03T09:30:50.197Z,2.00
2022-09-03T09:33:20.791Z,2.65
2022-09-03T09:35:48.470Z,2.08
2022-09-03T09:38:27.163Z,2.25
2022-09-03T09:40:57.147Z,1.73
2022-09-03T09:43:24.721Z,1.90
2022-09-03T09:45:53.772Z,1.95
2022-09-03T09:48:34.389Z,2.15
2022-09-03T09:51:13.426Z,1.92
2022-09-03T09:53:41.326Z,2.05
2022-09-03T09:56:08.908Z,2.05
2022-09-03T09:58:36.408Z,2.10
2022-09-03T10:01:18.639Z,2.65
2022-09-03T10:06:44.938Z,2.10
2022-09-03T10:09:30.811Z,2.28
2022-09-03T10:12:05.818Z,1.83
2022-09-03T10:14:47.706Z,1.92
2022-09-03T10:17:28.363Z,1.80
2022-09-03T10:20:27.608Z,2.05
2022-09-03T10:23:02.050Z,2.47
2022-09-03T10:25:39.275Z,2.38
2022-09-03T10:28:10.584Z,2.28
2022-09-03T10:31:19.394Z,2.00
2022-09-03T10:33:57.125Z,1.70
2022-09-03T10:36:33.200Z,1.95
2022-09-03T10:39:14.284Z,2.00
2022-09-03T10:42:11.164Z,2.10
2022-09-03T10:45:05.414Z,2.10
2022-09-03T10:47:59.817Z,2.30
2022-09-03T10:50:31.982Z,2.30
2022-09-03T10:53:14.002Z,2.60
2022-09-03T10:55:53.594Z,2.20
2022-09-03T10:58:40.583Z,2.70
2022-09-03T11:01:38.746Z,2.30
2022-09-03T11:04:20.052Z,2.60
2022-09-03T11:06:54.090Z,2.42
2022-09-03T11:09:33.990Z,2.67
2022-09-03T11:12:14.727Z,2.28
2022-09-03T11:14:52.424Z,2.70
2022-09-03T11:17:25.143Z,2.38
2022-09-03T11:20:18.940Z,2.28
2022-09-03T11:22:54.716Z,2.00
2022-09-03T11:28:23.810Z,2.17
2022-09-03T11:31:13.720Z,2.80
2022-09-03T11:33:51.302Z,7.40
2022-09-03T11:36:28.741Z,3.53
2022-09-03T11:38:56.775Z,2.25
2022-09-03T11:41:35.746Z,4.47
2022-09-03T11:44:42.694Z,2.97
2022-09-03T11:47:40.033Z,2.08
2022-09-03T11:50:21.357Z,2.03
2022-09-03T11:52:54.366Z,1.90
2022-09-03T11:55:38.445Z,2.10
2022-09-03T11:58:33.808Z,2.30
2022-09-03T12:01:16.039Z,1.98
2022-09-03T12:03:48.264Z,2.53
2022-09-03T12:06:37.349Z,2.00
2022-09-03T12:09:29.343Z,2.28
2022-09-03T12:12:24.024Z,2.10
2022-09-03T12:15:16.358Z,2.17
2022-09-03T12:18:20.969Z,2.20
2022-09-03T12:21:01.686Z,2.13
2022-09-03T12:23:40.388Z,2.22
2022-09-03T12:26:14.994Z,2.00
2022-09-03T12:28:45.756Z,2.10
2022-09-03T12:31:23.496Z,2.13
2022-09-03T12:34:11.426Z,2.25
2022-09-03T12:36:49.367Z,1.98
2022-09-03T12:40:03.618Z,2.20
2022-09-03T12:42:12.282Z,2.08
2022-09-03T12:44:42.606Z,2.28
2022-09-03T12:50:11.378Z,2.20
2022-09-03T12:52:45.243Z,2.67
2022-09-03T12:55:37.085Z,2.30
2022-09-03T12:58:12.899Z,1.92
2022-09-03T13:01:10.657Z,2.80
2022-09-03T13:04:17.059Z,2.33
2022-09-03T13:06:56.523Z,2.25
2022-09-03T13:09:26.972Z,2.90
2022-09-03T13:11:55.595Z,2.67
2022-09-03T13:14:24.384Z,2.78
2022-09-03T13:17:04.445Z,3.00
2022-09-03T13:19:50.638Z,2.63
2022-09-03T13:22:18.095Z,3.05
2022-09-03T13:25:24.668Z,2.50
2022-09-03T13:28:07.562Z,2.40
2022-09-03T13:31:00.234Z,3.00
2022-09-03T13:33:54.280Z,2.85
2022-09-03T13:36:31.991Z,2.40
2022-09-03T13:39:16.618Z,2.50
2022-09-03T13:41:50.041Z,2.60
2022-09-03T13:44:24.803Z,2.40
2022-09-03T13:47:01.566Z,2.50
2022-09-03T13:50:06.290Z,2.35
2022-09-03T13:52:43.097Z,2.17
2022-09-03T13:55:20.952Z,2.33
2022-09-03T13:58:02.168Z,2.33
2022-09-03T14:00:46.254Z,2.40
2022-09-03T14:03:31.191Z,2.58
2022-09-03T14:06:02.039Z,3.00
2022-09-03T14:08:54.315Z,2.40
2022-09-03T14:11:57.631Z,2.60
2022-09-03T14:14:40.275Z,2.80
2022-09-03T14:17:23.633Z,2.67
2022-09-03T14:20:32.868Z,2.58
2022-09-03T14:23:18.840Z,2.63
2022-09-03T14:25:59.655Z,2.85
2022-09-03T14:28:48.633Z,2.60
2022-09-03T14:31:45.178Z,2.50
2022-09-03T14:37:00.212Z,2.63
2022-09-03T14:39:34.534Z,3.05
2022-09-03T14:42:42.644Z,2.80
2022-09-03T14:45:49.259Z,3.05
2022-09-03T14:48:28.808Z,2.58
2022-09-03T14:51:19.190Z,3.08
2022-09-03T14:54:20.923Z,2.92
2022-09-03T14:57:04.003Z,3.10
2022-09-03T14:59:57.164Z,3.03
2022-09-03T15:02:47.007Z,3.58
2022-09-03T15:05:44.082Z,3.22
2022-09-03T15:08:30.576Z,3.17
2022-09-03T15:11:00.526Z,3.08
2022-09-03T15:13:33.301Z,3.50
2022-09-03T15:16:01.549Z,3.55
2022-09-03T15:19:01.777Z,4.18
2022-09-03T15:21:35.389Z,3.95
2022-09-03T15:24:02.754Z,3.85
2022-09-03T15:26:52.181Z,3.72
2022-09-03T15:29:43.202Z,3.20
2022-09-03T15:32:40.313Z,3.88
2022-09-03T15:35:34.339Z,3.00
2022-09-03T15:38:05.504Z,3.50
2022-09-03T15:40:48.994Z,3.33
2022-09-03T15:43:26.061Z,3.45
2022-09-03T15:45:59.391Z,3.40
2022-09-03T15:48:30.995Z,3.20
2022-09-03T15:51:28.810Z,2.90
2022-09-03T15:54:03.495Z,3.17
2022-09-03T15:56:47.087Z,3.10
2022-09-03T15:59:47.243Z,2.70
2022-09-03T16:02:18.842Z,3.17
2022-09-03T16:04:55.668Z,2.92
2022-09-03T16:07:48.942Z,2.97
2022-09-03T16:10:26.814Z,2.90
2022-09-03T16:13:14.725Z,2.67
2022-09-03T16:16:20.057Z,3.03
2022-09-03T16:19:01.373Z,2.90
2022-09-03T16:21:50.797Z,2.85
2022-09-03T16:24:28.800Z,2.50
2022-09-03T16:27:20.347Z,2.58
2022-09-03T16:30:10.292Z,2.97
2022-09-03T16:32:46.993Z,3.00
2022-09-03T16:35:17.478Z,3.03
2022-09-03T16:37:45.296Z,3.13
2022-09-03T16:40:34.130Z,2.60
2022-09-03T16:43:39.716Z,2.70
2022-09-03T16:46:33.134Z,2.55
2022-09-03T16:49:36.046Z,2.65
2022-09-03T16:52:10.597Z,2.70
2022-09-03T16:54:57.382Z,2.40
2022-09-03T16:57:46.623Z,2.50
2022-09-03T17:00:21.476Z,2.70
2022-09-03T17:03:25.090Z,2.80
2022-09-03T17:06:35.293Z,2.45
2022-09-03T17:09:29.042Z,2.72
2022-09-03T17:12:25.430Z,2.42
2022-09-03T17:15:03.662Z,2.35
2022-09-03T17:17:47.354Z,2.72
2022-09-03T17:20:33.663Z,2.90
2022-09-03T17:23:05.761Z,2.72
2022-09-03T17:25:40.259Z,2.60
2022-09-03T17:28:10.791Z,2.55
2022-09-03T17:30:50.157Z,2.50
2022-09-03T17:33:37.830Z,2.72
2022-09-03T17:36:22.787Z,2.10
2022-09-03T17:39:11.336Z,2.53
2022-09-03T17:41:54.879Z,2.60
2022-09-03T17:44:30.460Z,2.83
2022-09-03T17:47:26.127Z,2.17
2022-09-03T17:50:05.389Z,2.78
2022-09-03T17:52:39.274Z,2.88
2022-09-03T17:55:46.236Z,2.47
2022-09-03T17:58:17.180Z,3.00
2022-09-03T18:00:59.265Z,3.28
2022-09-03T18:03:33.287Z,3.08
2022-09-03T18:06:08.157Z,3.05
2022-09-03T18:08:57.787Z,3.40
2022-09-03T18:11:38.943Z,3.17
2022-09-03T18:14:15.795Z,3.05
2022-09-03T18:16:54.291Z,2.80
2022-09-03T18:19:30.270Z,2.83
2022-09-03T18:22:20.730Z,3.35
2022-09-03T18:25:17.768Z,2.80
2022-09-03T18:28:12.864Z,2.72
2022-09-03T18:30:59.062Z,3.00
2022-09-03T18:36:32.334Z,3.03
2022-09-03T18:39:39.731Z,3.20
2022-09-03T18:42:44.829Z,3.20
2022-09-03T18:49:13.039Z,3.33
2022-09-03T18:52:10.613Z,3.53
2022-09-03T19:00:54.187Z,3.30
2022-09-03T19:03:55.073Z,4.03
2022-09-03T19:06:44.217Z,3.78
2022-09-03T19:09:58.552Z,5.45
2022-09-03T19:13:12.894Z,6.13
2022-09-03T19:16:09.703Z,4.70
2022-09-03T19:22:06.953Z,3.80
2022-09-03T19:24:52.945Z,3.65
2022-09-03T19:27:57.226Z,3.60
2022-09-03T19:30:50.712Z,4.47
2022-09-03T19:33:58.536Z,4.18
2022-09-03T19:37:09.444Z,4.13
2022-09-03T19:40:05.983Z,3.78
2022-09-03T19:43:14.074Z,4.30
2022-09-03T19:46:00.060Z,4.15
2022-09-03T19:49:18.675Z,4.78
2022-09-03T19:52:21.828Z,4.07
2022-09-03T19:55:12.809Z,4.57
2022-09-03T19:58:01.952Z,5.10
2022-09-03T20:00:50.528Z,4.82
2022-09-03T20:03:36.574Z,4.65
2022-09-03T20:06:24.884Z,4.85
2022-09-03T20:09:21.539Z,5.20
2022-09-03T20:11:48.895Z,4.78
2022-09-03T20:14:19.734Z,4.70
2022-09-03T20:17:25.139Z,4.47
2022-09-03T20:19:52.514Z,4.75
2022-09-03T20:22:25.459Z,4.63
2022-09-03T20:25:18.204Z,4.85
2022-09-03T20:27:54.827Z,4.55
2022-09-03T20:30:27.607Z,5.05
2022-09-03T20:33:03.359Z,4.82
2022-09-03T20:35:40.997Z,4.43
2022-09-03T20:38:20.631Z,5.10
2022-09-03T20:41:23.790Z,5.15
2022-09-03T20:44:20.948Z,4.88
2022-09-03T20:47:07.329Z,5.03
2022-09-03T20:49:57.451Z,5.05
2022-09-03T20:52:45.725Z,4.78
2022-09-03T20:55:20.715Z,4.88
2022-09-03T20:58:19.529Z,4.47
2022-09-03T21:00:56.249Z,5.32
2022-09-03T21:03:50.114Z,4.45
2022-09-03T21:06:42.422Z,5.35
2022-09-03T21:09:45.511Z,5.00
2022-09-03T21:12:39.625Z,5.10
2022-09-03T21:15:30.380Z,5.03
2022-09-03T21:18:04.092Z,5.20
2022-09-03T21:20:37.947Z,4.28
2022-09-03T21:23:13.958Z,5.57
2022-09-03T21:28:15.424Z,5.45
2022-09-03T21:30:48.318Z,5.25
2022-09-03T21:33:44.776Z,4.60
2022-09-03T21:36:16.587Z,4.95
2022-09-03T21:38:50.288Z,5.20
2022-09-03T21:41:26.883Z,5.10
2022-09-03T21:44:07.759Z,4.82
2022-09-03T21:46:40.525Z,4.75
2022-09-03T21:49:12.115Z,5.35
2022-09-03T21:52:04.004Z,5.22
2022-09-03T21:54:34.150Z,5.07
2022-09-03T21:57:24.910Z,5.80
2022-09-03T22:00:04.676Z,4.78
2022-09-03T22:02:40.461Z,5.38
2022-09-03T22:05:08.719Z,5.22
2022-09-03T22:07:43.885Z,5.68
2022-09-03T22:10:21.086Z,5.40
2022-09-03T22:13:14.932Z,5.97
2022-09-03T22:15:51.933Z,5.20
2022-09-03T22:18:29.096Z,5.05
2022-09-03T22:21:15.788Z,5.25
2022-09-03T22:23:55.395Z,5.07
2022-09-03T22:26:52.250Z,5.07
2022-09-03T22:29:28.598Z,5.18
2022-09-03T22:32:02.070Z,4.75
2022-09-03T22:34:43.944Z,5.70
2022-09-03T22:37:40.930Z,4.88
2022-09-03T22:43:04.081Z,5.22
2022-09-03T22:45:41.395Z,5.28
2022-09-03T22:48:30.945Z,5.03
2022-09-03T22:51:00.997Z,5.50
2022-09-03T22:53:46.100Z,5.15
2022-09-03T22:56:21.902Z,4.85
2022-09-03T22:58:49.285Z,5.00
2022-09-03T23:01:39.139Z,5.38
2022-09-03T23:09:33.523Z,5.40
2022-09-03T23:12:08.660Z,4.72
2022-09-03T23:14:48.803Z,5.20
2022-09-03T23:22:37.326Z,5.57
2022-09-03T23:25:19.543Z,5.50
2022-09-03T23:27:59.862Z,5.32
2022-09-03T23:30:27.485Z,5.38
2022-09-03T23:32:59.814Z,5.07
2022-09-03T23:35:35.092Z,5.63
2022-09-03T23:38:12.531Z,5.47
2022-09-03T23:40:45.665Z,5.57
2022-09-03T23:43:35.431Z,4.72
2022-09-03T23:46:27.499Z,4.80
2022-09-03T23:49:23.166Z,4.90
2022-09-03T23:52:19.067Z,5.07
2022-09-03T23:54:51.893Z,5.07
2022-09-03T23:57:35.456Z,5.38
